sensor_id;sensor_type;location;lat;lon;timestamp;pressure;altitude;pressure_sealevel;temperature;humidity
69593;BME280;56796;50.122;14.468;2023-07-02T00:02:02;970.16;;;20.32;65.32
69593;BME280;56796;50.122;14.468;2023-07-02T00:21:27;970.15;;;19.82;70.94
69593;BME280;56796;50.122;14.468;2023-07-02T00:40:53;970.21;;;19.46;73.53
69593;BME280;56796;50.122;14.468;2023-07-02T01:00:18;970.23;;;18.93;79.14
69593;BME280;56796;50.122;14.468;2023-07-02T01:19:44;970.16;;;18.65;81.67
69593;BME280;56796;50.122;14.468;2023-07-02T01:39:10;970.19;;;18.5;82.96
69593;BME280;56796;50.122;14.468;2023-07-02T01:58:37;970.24;;;18.37;84.55
69593;BME280;56796;50.122;14.468;2023-07-02T02:18:03;970.22;;;18.4;84.66
69593;BME280;56796;50.122;14.468;2023-07-02T02:37:33;970.25;;;18.39;84.85
69593;BME280;56796;50.122;14.468;2023-07-02T02:56:57;970.27;;;18.39;85.25
69593;BME280;56796;50.122;14.468;2023-07-02T03:16:24;970.34;;;18.5;84.53
69593;BME280;56796;50.122;14.468;2023-07-02T03:35:52;970.47;;;18.61;84.2
69593;BME280;56796;50.122;14.468;2023-07-02T03:55:19;970.6;;;18.68;83.84
69593;BME280;56796;50.122;14.468;2023-07-02T04:14:46;970.71;;;18.65;84.47
69593;BME280;56796;50.122;14.468;2023-07-02T04:34:16;970.9;;;18.71;84.12
69593;BME280;56796;50.122;14.468;2023-07-02T04:53:37;970.97;;;18.87;83.96
69593;BME280;56796;50.122;14.468;2023-07-02T05:13:05;971.01;;;18.87;84
69593;BME280;56796;50.122;14.468;2023-07-02T05:32:33;970.94;;;19.37;82.6
69593;BME280;56796;50.122;14.468;2023-07-02T05:52:04;971.12;;;20.21;78.9
69593;BME280;56796;50.122;14.468;2023-07-02T06:11:31;971.15;;;20.42;77.16
69593;BME280;56796;50.122;14.468;2023-07-02T06:31:00;971.31;;;20.78;73.2
69593;BME280;56796;50.122;14.468;2023-07-02T06:50:28;971.22;;;21.06;71.53
69593;BME280;56796;50.122;14.468;2023-07-02T07:09:58;971.47;;;20.76;71.73
69593;BME280;56796;50.122;14.468;2023-07-02T07:29:26;971.62;;;21.07;68.88
69593;BME280;56796;50.122;14.468;2023-07-02T07:49:00;971.63;;;23.12;62.71
69593;BME280;56796;50.122;14.468;2023-07-02T08:08:24;971.64;;;22.43;62.87
69593;BME280;56796;50.122;14.468;2023-07-02T08:27:47;971.85;;;21.86;66.21
69593;BME280;56796;50.122;14.468;2023-07-02T08:47:16;971.88;;;22.56;63.73
69593;BME280;56796;50.122;14.468;2023-07-02T09:06:45;971.91;;;24.22;56.82
69593;BME280;56796;50.122;14.468;2023-07-02T09:45:41;971.86;;;24.89;53.23
69593;BME280;56796;50.122;14.468;2023-07-02T10:24:49;971.88;;;23.27;56.4
69593;BME280;56796;50.122;14.468;2023-07-02T10:44:05;971.91;;;25.6;51.58
69593;BME280;56796;50.122;14.468;2023-07-02T11:03:34;971.86;;;25.34;50.69
69593;BME280;56796;50.122;14.468;2023-07-02T11:42:34;971.99;;;24.33;50.9
69593;BME280;56796;50.122;14.468;2023-07-02T12:01:53;972.19;;;23.97;53.25
69593;BME280;56796;50.122;14.468;2023-07-02T12:21:21;972;;;26.42;49.04
69593;BME280;56796;50.122;14.468;2023-07-02T12:40:57;972.15;;;24.69;46.84
69593;BME280;56796;50.122;14.468;2023-07-02T13:00:29;972.04;;;27.71;41.27
69593;BME280;56796;50.122;14.468;2023-07-02T13:20:02;972.21;;;28.34;39.79
69593;BME280;56796;50.122;14.468;2023-07-02T13:39:30;972.06;;;28.13;34.73
69593;BME280;56796;50.122;14.468;2023-07-02T13:59:00;972.2;;;28.68;34.87
69593;BME280;56796;50.122;14.468;2023-07-02T14:18:20;972.34;;;26.45;35.92
69593;BME280;56796;50.122;14.468;2023-07-02T14:37:46;972.37;;;27.88;35.71
69593;BME280;56796;50.122;14.468;2023-07-02T14:57:14;972.45;;;27.17;36.14
69593;BME280;56796;50.122;14.468;2023-07-02T15:16:38;972.65;;;24.98;40.1
69593;BME280;56796;50.122;14.468;2023-07-02T15:35:58;972.75;;;25.32;38.93
69593;BME280;56796;50.122;14.468;2023-07-02T15:55:20;972.76;;;25.51;38.26
69593;BME280;56796;50.122;14.468;2023-07-02T16:14:47;972.98;;;25.43;39.3
69593;BME280;56796;50.122;14.468;2023-07-02T16:34:13;973.05;;;24.26;42.27
69593;BME280;56796;50.122;14.468;2023-07-02T16:53:38;973.12;;;24.02;43.99
69593;BME280;56796;50.122;14.468;2023-07-02T17:13:04;973.24;;;23.63;45.27
69593;BME280;56796;50.122;14.468;2023-07-02T17:32:29;973.37;;;23.35;46.97
69593;BME280;56796;50.122;14.468;2023-07-02T17:51:58;973.43;;;23.56;44.86
69593;BME280;56796;50.122;14.468;2023-07-02T18:11:24;973.64;;;23;45.15
69593;BME280;56796;50.122;14.468;2023-07-02T18:30:53;973.7;;;22.5;46.66
69593;BME280;56796;50.122;14.468;2023-07-02T18:50:12;973.76;;;22.04;47.91
69593;BME280;56796;50.122;14.468;2023-07-02T19:09:38;973.8;;;21.65;49.42
69593;BME280;56796;50.122;14.468;2023-07-02T19:29:03;973.96;;;21.18;50.86
69593;BME280;56796;50.122;14.468;2023-07-02T19:48:29;974.07;;;21.01;50.22
69593;BME280;56796;50.122;14.468;2023-07-02T20:07:56;974.19;;;20.88;49.95
69593;BME280;56796;50.122;14.468;2023-07-02T20:27:24;974.35;;;20.6;51.41
69593;BME280;56796;50.122;14.468;2023-07-02T20:46:49;974.33;;;20.51;52.3
69593;BME280;56796;50.122;14.468;2023-07-02T21:06:16;974.48;;;20.37;52.46
69593;BME280;56796;50.122;14.468;2023-07-02T21:25:43;974.64;;;20.04;53.62
69593;BME280;56796;50.122;14.468;2023-07-02T21:45:09;974.74;;;19.62;55.56
69593;BME280;56796;50.122;14.468;2023-07-02T22:04:35;974.79;;;19.36;57.1
69593;BME280;56796;50.122;14.468;2023-07-02T22:24:00;974.88;;;18.89;58.77
69593;BME280;56796;50.122;14.468;2023-07-02T22:43:29;974.93;;;18.64;58.49
69593;BME280;56796;50.122;14.468;2023-07-02T23:02:48;974.99;;;18.54;58.98
69593;BME280;56796;50.122;14.468;2023-07-02T23:22:15;974.9;;;18.42;59.05
69593;BME280;56796;50.122;14.468;2023-07-02T23:41:42;974.84;;;18.07;59.89
